createdAt,value
2023-05-05T00:01:38.153Z,100882.44
2023-05-05T00:04:40.721Z,100877.34
2023-05-05T00:07:43.276Z,100879.13
2023-05-05T00:10:46.564Z,100870.31
2023-05-05T00:13:49.102Z,100879.91
2023-05-05T00:16:51.532Z,100875.31
2023-05-05T00:19:54.584Z,100869.94
2023-05-05T00:22:57.537Z,100881.94
2023-05-05T00:26:00.060Z,100875.88
2023-05-05T00:29:02.495Z,100878.34
2023-05-05T00:32:05.151Z,100877.28
2023-05-05T00:35:08.777Z,100876.25
2023-05-05T00:38:11.344Z,100867.41
2023-05-05T00:41:13.984Z,100869.94
2023-05-05T00:44:16.819Z,100876.81
2023-05-05T00:47:19.313Z,100871.56
2023-05-05T00:50:24.303Z,100871.34
2023-05-05T00:53:27.170Z,100864.94
2023-05-05T00:56:29.694Z,100861.28
2023-05-05T00:59:34.980Z,100869.06
2023-05-05T01:02:39.272Z,100869.69
2023-05-05T01:06:17.074Z,100870.38
2023-05-05T01:09:44.801Z,100873.78
2023-05-05T01:13:12.441Z,100878.13
2023-05-05T01:16:18.914Z,100870.47
2023-05-05T01:19:52.565Z,100863.19
2023-05-05T01:23:00.593Z,100865.28
2023-05-05T01:26:09.108Z,100862.53
2023-05-05T01:29:46.705Z,100853.78
2023-05-05T01:32:51.091Z,100862.66
2023-05-05T01:35:58.378Z,100866.72
2023-05-05T01:39:01.926Z,100856.38
2023-05-05T01:42:09.385Z,100860.59
2023-05-05T01:45:12.096Z,100862.31
2023-05-05T01:48:16.546Z,100857.03
2023-05-05T01:51:19.739Z,100856.97
2023-05-05T01:54:24.830Z,100850.78
2023-05-05T01:57:27.265Z,100854.19
2023-05-05T02:00:30.002Z,100849.50
2023-05-05T02:03:34.088Z,100850.09
2023-05-05T02:06:36.831Z,100852.59
2023-05-05T02:09:39.375Z,100853.84
2023-05-05T02:12:44.599Z,100853.72
2023-05-05T02:15:47.167Z,100852.78
2023-05-05T02:18:49.613Z,100848.91
2023-05-05T02:21:52.144Z,100851.38
2023-05-05T02:24:54.778Z,100852.28
2023-05-05T02:27:57.367Z,100845.31
2023-05-05T02:31:00.249Z,100850.38
2023-05-05T02:34:03.348Z,100856.44
2023-05-05T02:37:11.468Z,100852.03
2023-05-05T02:40:18.622Z,100843.22
2023-05-05T02:43:22.527Z,100848.50
2023-05-05T02:46:25.400Z,100852.59
2023-05-05T02:49:27.957Z,100850.63
2023-05-05T02:52:34.993Z,100857.59
2023-05-05T02:55:43.112Z,100856.63
2023-05-05T02:58:52.681Z,100853.19
2023-05-05T03:02:10.920Z,100856.00
2023-05-05T03:05:17.768Z,100866.34
2023-05-05T03:08:28.584Z,100865.09
2023-05-05T03:11:41.442Z,100847.78
2023-05-05T03:14:45.119Z,100858.34
2023-05-05T03:17:50.833Z,100849.88
2023-05-05T03:20:53.468Z,100855.31
2023-05-05T03:23:57.797Z,100858.75
2023-05-05T03:27:00.631Z,100857.78
2023-05-05T03:30:09.345Z,100850.66
2023-05-05T03:33:17.212Z,100855.25
2023-05-05T03:36:20.057Z,100861.94
2023-05-05T03:39:22.895Z,100848.06
2023-05-05T03:42:26.436Z,100856.72
2023-05-05T03:45:29.381Z,100864.53
2023-05-05T03:48:32.385Z,100862.53
2023-05-05T03:51:36.727Z,100861.56
2023-05-05T03:54:39.463Z,100865.28
2023-05-05T03:57:42.453Z,100860.38
2023-05-05T04:00:44.966Z,100862.53
2023-05-05T04:03:48.130Z,100860.31
2023-05-05T04:06:50.880Z,100873.06
2023-05-05T04:09:56.160Z,100874.09
2023-05-05T04:13:01.310Z,100876.19
2023-05-05T04:16:06.312Z,100876.91
2023-05-05T04:19:09.407Z,100873.69
2023-05-05T04:22:12.114Z,100883.63
2023-05-05T04:25:14.872Z,100883.88
2023-05-05T04:28:19.060Z,100873.50
2023-05-05T04:31:23.178Z,100866.84
2023-05-05T04:34:26.942Z,100868.91
2023-05-05T04:37:30.241Z,100869.22
2023-05-05T04:40:33.937Z,100872.94
2023-05-05T04:43:36.916Z,100879.19
2023-05-05T04:46:48.748Z,100879.13
2023-05-05T04:49:52.023Z,100888.88
2023-05-05T04:52:54.785Z,100891.78
2023-05-05T04:55:57.994Z,100888.66
2023-05-05T04:59:00.648Z,100902.75
2023-05-05T05:02:03.569Z,100900.31
2023-05-05T05:05:06.784Z,100894.31
2023-05-05T05:08:09.477Z,100902.22
2023-05-05T05:11:12.230Z,100903.28
2023-05-05T05:14:15.956Z,100899.19
2023-05-05T05:17:22.667Z,100897.50
2023-05-05T05:20:29.881Z,100903.63
2023-05-05T05:23:32.582Z,100901.06
2023-05-05T05:26:35.333Z,100909.19
2023-05-05T05:29:38.446Z,100908.59
2023-05-05T05:32:41.208Z,100910.72
2023-05-05T05:35:44.886Z,100903.78
2023-05-05T05:38:50.202Z,100915.34
2023-05-05T05:41:52.916Z,100913.97
2023-05-05T05:44:58.036Z,100919.31
2023-05-05T05:48:04.143Z,100914.94
2023-05-05T05:51:08.225Z,100918.75
2023-05-05T05:54:14.377Z,100926.13
2023-05-05T05:57:19.097Z,100934.25
2023-05-05T06:00:22.114Z,100931.66
2023-05-05T06:03:32.279Z,100928.44
2023-05-05T06:06:34.960Z,100937.53
2023-05-05T06:09:37.513Z,100918.31
2023-05-05T06:12:40.334Z,100925.59
2023-05-05T06:15:43.029Z,100928.41
2023-05-05T06:18:50.905Z,100917.88
2023-05-05T06:21:57.833Z,100921.50
2023-05-05T06:25:00.940Z,100912.72
2023-05-05T06:28:07.331Z,100918.13
2023-05-05T06:31:10.408Z,100915.69
2023-05-05T06:34:12.868Z,100908.91
2023-05-05T06:37:15.484Z,100901.94
2023-05-05T06:40:18.163Z,100911.72
2023-05-05T06:43:21.039Z,100911.06
2023-05-05T06:46:29.703Z,100910.25
2023-05-05T06:49:32.780Z,100912.03
2023-05-05T06:52:35.275Z,100914.88
2023-05-05T06:55:38.177Z,100909.66
2023-05-05T06:58:41.518Z,100921.38
2023-05-05T07:01:44.022Z,100913.59
2023-05-05T07:04:46.712Z,100922.72
2023-05-05T07:07:56.264Z,100908.81
2023-05-05T07:11:01.066Z,100905.50
2023-05-05T07:14:03.715Z,100908.28
2023-05-05T07:17:06.577Z,100904.00
2023-05-05T07:20:10.223Z,100900.66
2023-05-05T07:23:13.168Z,100902.56
2023-05-05T07:26:16.259Z,100903.50
2023-05-05T07:29:18.792Z,100898.34
2023-05-05T07:32:21.393Z,100886.94
2023-05-05T07:35:23.970Z,100899.44
2023-05-05T07:38:26.699Z,100888.84
2023-05-05T07:41:30.316Z,100899.47
2023-05-05T07:44:33.814Z,100898.59
2023-05-05T07:47:36.972Z,100904.75
2023-05-05T07:50:39.770Z,100893.28
2023-05-05T07:53:43.253Z,100906.53
2023-05-05T07:56:46.069Z,100896.81
2023-05-05T07:59:48.636Z,100901.25
2023-05-05T08:02:51.339Z,100906.56
2023-05-05T08:05:56.154Z,100902.13
2023-05-05T08:09:00.265Z,100894.19
2023-05-05T08:12:09.555Z,100900.28
2023-05-05T08:15:12.820Z,100901.84
2023-05-05T08:18:15.480Z,100893.75
2023-05-05T08:21:18.782Z,100891.81
2023-05-05T08:24:21.334Z,100883.72
2023-05-05T08:27:26.626Z,100881.09
2023-05-05T08:30:29.458Z,100877.56
2023-05-05T08:33:32.700Z,100884.78
2023-05-05T08:36:37.844Z,100889.03
2023-05-05T08:39:40.367Z,100890.38
2023-05-05T08:42:43.217Z,100897.50
2023-05-05T08:45:46.310Z,100889.09
2023-05-05T08:48:49.814Z,100891.00
2023-05-05T08:51:56.555Z,100880.03
2023-05-05T08:55:22.830Z,100870.97
2023-05-05T08:58:28.273Z,100871.72
2023-05-05T09:01:32.656Z,100863.13
2023-05-05T09:04:35.366Z,100876.31
2023-05-05T09:07:38.607Z,100878.34
2023-05-05T09:10:41.879Z,100868.97
2023-05-05T09:13:44.644Z,100871.53
2023-05-05T09:16:47.141Z,100869.09
2023-05-05T09:20:15.806Z,100869.84
2023-05-05T09:23:19.866Z,100844.78
2023-05-05T09:26:22.815Z,100854.84
2023-05-05T09:29:25.492Z,100853.06
2023-05-05T09:32:30.592Z,100854.84
2023-05-05T09:35:55.278Z,100844.78
2023-05-05T09:39:05.012Z,100853.75
2023-05-05T09:42:18.122Z,100849.66
2023-05-05T09:45:20.640Z,100831.41
2023-05-05T09:48:28.647Z,100826.81
2023-05-05T09:51:31.881Z,100831.22
2023-05-05T09:54:34.833Z,100834.84
2023-05-05T09:57:37.315Z,100831.16
2023-05-05T10:00:40.082Z,100838.81
2023-05-05T10:03:54.426Z,100830.72
2023-05-05T10:06:57.665Z,100825.47
2023-05-05T10:10:00.226Z,100820.31
2023-05-05T10:13:02.865Z,100827.44
2023-05-05T10:16:06.019Z,100815.78
2023-05-05T10:19:08.483Z,100815.75
2023-05-05T10:22:11.038Z,100814.72
2023-05-05T10:25:14.014Z,100812.25
2023-05-05T10:28:19.392Z,100807.13
2023-05-05T10:31:29.758Z,100809.69
2023-05-05T10:34:39.623Z,100806.56
2023-05-05T10:37:42.117Z,100810.53
2023-05-05T10:40:46.193Z,100803.38
2023-05-05T10:43:49.240Z,100797.78
2023-05-05T10:46:54.310Z,100797.38
2023-05-05T10:50:15.398Z,100784.59
2023-05-05T10:53:32.180Z,100786.22
2023-05-05T10:56:34.785Z,100782.09
2023-05-05T10:59:37.808Z,100779.44
2023-05-05T11:02:41.476Z,100774.50
2023-05-05T11:06:08.079Z,100771.38
2023-05-05T11:09:29.370Z,100764.31
2023-05-05T11:12:32.644Z,100762.34
2023-05-05T11:15:38.437Z,100764.59
2023-05-05T11:18:44.468Z,100760.47
2023-05-05T11:22:13.688Z,100751.56
2023-05-05T11:25:38.276Z,100748.56
2023-05-05T11:29:00.991Z,100744.81
2023-05-05T11:32:13.959Z,100751.66
2023-05-05T11:35:16.531Z,100739.84
2023-05-05T11:38:19.279Z,100735.69
2023-05-05T11:41:33.903Z,100730.47
2023-05-05T11:44:39.161Z,100727.81
2023-05-05T11:47:43.888Z,100737.94
2023-05-05T11:50:46.964Z,100719.06
2023-05-05T11:53:49.962Z,100720.59
2023-05-05T11:56:53.895Z,100723.56
2023-05-05T12:00:04.443Z,100713.22
2023-05-05T12:03:08.839Z,100710.44
2023-05-05T12:06:11.422Z,100712.44
2023-05-05T12:09:32.710Z,100717.22
2023-05-05T12:12:40.991Z,100700.06
2023-05-05T12:15:43.392Z,100708.72
2023-05-05T12:18:47.506Z,100701.38
2023-05-05T12:21:50.783Z,100703.03
2023-05-05T12:25:02.280Z,100698.69
2023-05-05T12:28:06.808Z,100693.63
2023-05-05T12:31:09.641Z,100693.16
2023-05-05T12:34:12.164Z,100683.88
2023-05-05T12:37:16.502Z,100679.41
2023-05-05T12:40:47.753Z,100675.50
2023-05-05T12:44:00.002Z,100678.25
2023-05-05T12:47:02.747Z,100675.44
2023-05-05T12:50:05.959Z,100670.53
2023-05-05T12:53:09.124Z,100669.81
2023-05-05T12:56:31.164Z,100656.97
2023-05-05T12:59:33.870Z,100668.56
2023-05-05T13:02:36.680Z,100659.47
2023-05-05T13:05:41.189Z,100651.81
2023-05-05T13:08:44.673Z,100646.09
2023-05-05T13:11:47.257Z,100639.59
2023-05-05T13:14:49.985Z,100636.56
2023-05-05T13:18:01.112Z,100628.88
2023-05-05T13:21:03.687Z,100626.63
2023-05-05T13:24:21.320Z,100631.91
2023-05-05T13:27:28.692Z,100625.44
2023-05-05T13:30:32.056Z,100619.47
2023-05-05T13:33:34.918Z,100618.88
2023-05-05T13:36:37.877Z,100618.47
2023-05-05T13:39:40.564Z,100609.31
2023-05-05T13:42:43.107Z,100607.69
2023-05-05T13:45:45.815Z,100602.97
2023-05-05T13:48:48.747Z,100604.81
2023-05-05T13:51:53.328Z,100598.94
2023-05-05T13:54:58.907Z,100595.44
2023-05-05T13:58:01.570Z,100596.03
2023-05-05T14:01:04.495Z,100598.84
2023-05-05T14:04:07.333Z,100593.03
2023-05-05T14:07:10.167Z,100590.66
2023-05-05T14:10:13.941Z,100596.13
2023-05-05T14:13:16.388Z,100584.63
2023-05-05T14:16:18.936Z,100586.25
2023-05-05T14:34:41.653Z,100582.94
2023-05-05T14:37:44.339Z,100576.31
2023-05-05T14:40:46.929Z,100572.13
2023-05-05T14:43:49.681Z,100574.13
2023-05-05T14:46:52.577Z,100573.25
2023-05-05T14:53:36.391Z,100573.84
2023-05-05T15:00:54.656Z,100582.25
2023-05-05T15:03:57.687Z,100576.19
2023-05-05T15:07:00.871Z,100573.47
2023-05-05T15:10:05.011Z,100568.34
2023-05-05T15:13:07.740Z,100570.78
2023-05-05T15:16:10.599Z,100570.09
2023-05-05T15:19:25.881Z,100575.41
2023-05-05T15:22:32.109Z,100564.50
2023-05-05T15:25:37.601Z,100564.19
2023-05-05T15:28:40.656Z,100562.91
2023-05-05T15:31:43.521Z,100554.69
2023-05-05T15:34:50.227Z,100549.88
2023-05-05T15:37:56.057Z,100560.00
2023-05-05T15:41:00.297Z,100557.94
2023-05-05T15:44:04.626Z,100548.53
2023-05-05T15:47:10.999Z,100548.84
2023-05-05T15:50:14.196Z,100547.59
2023-05-05T15:53:17.750Z,100549.00
2023-05-05T15:56:21.111Z,100537.97
2023-05-05T15:59:24.376Z,100540.84
2023-05-05T16:02:27.091Z,100533.94
2023-05-05T16:05:30.364Z,100528.34
2023-05-05T16:08:33.025Z,100535.75
2023-05-05T16:11:37.256Z,100538.16
2023-05-05T16:14:40.099Z,100526.72
2023-05-05T16:17:43.164Z,100530.94
2023-05-05T16:20:46.013Z,100535.47
2023-05-05T16:23:50.339Z,100532.88
2023-05-05T16:26:53.187Z,100518.91
2023-05-05T16:29:57.688Z,100526.69
2023-05-05T16:33:02.042Z,100533.06
2023-05-05T16:36:05.067Z,100528.13
2023-05-05T16:39:07.735Z,100526.94
2023-05-05T16:42:10.222Z,100526.69
2023-05-05T16:45:13.796Z,100535.94
2023-05-05T16:48:17.698Z,100526.44
2023-05-05T16:51:20.571Z,100532.19
2023-05-05T16:54:23.349Z,100532.41
2023-05-05T16:57:26.236Z,100520.97
2023-05-05T17:00:28.710Z,100531.97
2023-05-05T17:03:31.340Z,100529.47
2023-05-05T17:06:33.931Z,100527.13
2023-05-05T17:09:36.768Z,100533.66
2023-05-05T17:12:40.223Z,100523.38
2023-05-05T17:15:44.574Z,100531.53
2023-05-05T17:18:47.583Z,100528.09
2023-05-05T17:21:50.234Z,100526.31
2023-05-05T17:24:52.804Z,100523.00
2023-05-05T17:27:56.381Z,100529.41
2023-05-05T17:31:01.653Z,100531.34
2023-05-05T17:34:04.303Z,100528.97
2023-05-05T17:37:07.525Z,100526.50
2023-05-05T17:40:10.564Z,100535.50
2023-05-05T17:43:13.346Z,100539.38
2023-05-05T17:46:15.896Z,100537.75
2023-05-05T17:49:18.576Z,100536.19
2023-05-05T17:52:21.179Z,100538.19
2023-05-05T17:55:26.616Z,100529.66
2023-05-05T17:58:29.193Z,100535.19
2023-05-05T18:01:31.765Z,100530.97
2023-05-05T18:04:36.571Z,100540.88
2023-05-05T18:07:39.146Z,100540.94
2023-05-05T18:10:42.081Z,100541.81
2023-05-05T18:13:44.601Z,100541.00
2023-05-05T18:16:52.219Z,100545.53
2023-05-05T18:19:54.833Z,100535.09
2023-05-05T18:22:57.172Z,100548.38
2023-05-05T18:25:59.924Z,100546.72
2023-05-05T18:29:02.633Z,100546.78
2023-05-05T18:32:10.893Z,100553.06
2023-05-05T18:35:14.080Z,100568.16
2023-05-05T18:38:16.848Z,100561.09
2023-05-05T18:41:19.631Z,100561.19
2023-05-05T18:44:22.538Z,100557.72
2023-05-05T18:47:26.334Z,100558.59
2023-05-05T18:50:29.035Z,100560.38
2023-05-05T18:53:31.857Z,100566.56
2023-05-05T18:56:34.337Z,100564.84
2023-05-05T18:59:36.789Z,100571.00
2023-05-05T19:02:39.286Z,100574.53
2023-05-05T19:05:42.197Z,100571.88
2023-05-05T19:08:45.600Z,100575.41
2023-05-05T19:11:48.022Z,100574.50
2023-05-05T19:14:50.705Z,100582.38
2023-05-05T19:17:53.881Z,100576.19
2023-05-05T19:20:56.647Z,100584.16
2023-05-05T19:23:59.006Z,100571.78
2023-05-05T19:27:03.030Z,100583.22
2023-05-05T19:30:06.487Z,100576.16
2023-05-05T19:33:09.228Z,100576.09
2023-05-05T19:36:12.753Z,100576.94
2023-05-05T19:39:15.957Z,100574.25
2023-05-05T19:42:18.698Z,100569.81
2023-05-05T19:45:21.576Z,100575.91
2023-05-05T19:48:24.710Z,100582.03
2023-05-05T19:51:27.399Z,100575.75
2023-05-05T19:54:30.017Z,100578.34
2023-05-05T19:57:32.620Z,100576.72
2023-05-05T20:00:35.124Z,100576.69
2023-05-05T20:03:37.714Z,100576.59
2023-05-05T20:06:40.812Z,100573.00
2023-05-05T20:09:43.284Z,100576.47
2023-05-05T20:12:49.203Z,100567.63
2023-05-05T20:15:52.103Z,100569.38
2023-05-05T20:18:55.173Z,100574.56
2023-05-05T20:22:00.485Z,100574.53
2023-05-05T20:25:02.949Z,100567.38
2023-05-05T20:28:05.566Z,100565.50
2023-05-05T20:31:09.398Z,100571.75
2023-05-05T20:34:12.212Z,100570.00
2023-05-05T20:37:14.683Z,100575.34
2023-05-05T20:40:17.434Z,100582.34
2023-05-05T20:43:20.106Z,100576.09
2023-05-05T20:46:22.959Z,100582.31
2023-05-05T20:49:29.205Z,100573.31
2023-05-05T20:52:32.264Z,100568.94
2023-05-05T20:55:34.998Z,100576.72
2023-05-05T20:58:37.736Z,100578.50
2023-05-05T21:01:40.174Z,100575.84
2023-05-05T21:04:42.673Z,100572.25
2023-05-05T21:07:45.395Z,100573.94
2023-05-05T21:10:47.810Z,100557.16
2023-05-05T21:13:50.407Z,100562.31
2023-05-05T21:16:53.208Z,100565.72
2023-05-05T21:20:08.972Z,100573.66
2023-05-05T21:23:14.311Z,100571.94
2023-05-05T21:26:16.881Z,100559.78
2023-05-05T21:29:19.815Z,100554.50
2023-05-05T21:32:22.291Z,100557.00
2023-05-05T21:35:24.918Z,100557.78
2023-05-05T21:38:27.749Z,100551.56
2023-05-05T21:41:30.123Z,100563.97
2023-05-05T21:44:32.825Z,100545.41
2023-05-05T21:47:35.602Z,100546.25
2023-05-05T21:50:38.091Z,100543.44
2023-05-05T21:53:40.855Z,100540.72
2023-05-05T21:56:43.282Z,100539.22
2023-05-05T21:59:45.899Z,100528.75
2023-05-05T22:02:48.671Z,100532.28
2023-05-05T22:05:51.175Z,100535.66
2023-05-05T22:08:53.771Z,100536.53
2023-05-05T22:11:57.784Z,100525.91
2023-05-05T22:15:00.282Z,100532.81
2023-05-05T22:18:03.309Z,100536.44
2023-05-05T22:21:05.806Z,100533.94
2023-05-05T22:24:08.256Z,100537.41
2023-05-05T22:27:10.838Z,100535.63
2023-05-05T22:30:13.925Z,100527.69
2023-05-05T22:33:16.823Z,100535.38
2023-05-05T22:36:19.225Z,100532.88
2023-05-05T22:39:21.761Z,100546.09
2023-05-05T22:42:24.183Z,100547.59
2023-05-05T22:45:26.763Z,100552.88
2023-05-05T22:48:29.238Z,100558.06
2023-05-05T22:51:31.911Z,100564.88
2023-05-05T22:54:34.450Z,100564.94
2023-05-05T22:57:37.014Z,100563.97
2023-05-05T23:00:39.968Z,100555.19
2023-05-05T23:03:42.516Z,100561.31
2023-05-05T23:06:45.119Z,100566.25
2023-05-05T23:09:47.617Z,100544.03
2023-05-05T23:12:50.104Z,100560.78
2023-05-05T23:15:52.804Z,100556.50
2023-05-05T23:18:55.281Z,100559.19
2023-05-05T23:21:59.370Z,100547.53
2023-05-05T23:25:02.411Z,100543.16
2023-05-05T23:28:06.039Z,100547.38
2023-05-05T23:31:09.038Z,100553.31
2023-05-05T23:34:11.421Z,100548.00
2023-05-05T23:37:14.614Z,100544.44
2023-05-05T23:40:17.087Z,100544.63
2023-05-05T23:43:19.692Z,100537.75
2023-05-05T23:46:22.094Z,100547.31
2023-05-05T23:49:26.440Z,100542.94
2023-05-05T23:52:29.053Z,100537.53
2023-05-05T23:55:31.527Z,100546.41
2023-05-05T23:58:34.129Z,100552.44
